sensor_id;sensor_type;location;lat;lon;timestamp;P1;durP1;ratioP1;P2;durP2;ratioP2
76978;SDS011;65911;47.502;19.148;2023-04-03T00:00:41;4.25;;;2.78;;
76978;SDS011;65911;47.502;19.148;2023-04-03T00:03:49;3.35;;;2.90;;
76978;SDS011;65911;47.502;19.148;2023-04-03T00:06:54;4.20;;;3.38;;
76978;SDS011;65911;47.502;19.148;2023-04-03T00:09:57;3.60;;;2.95;;
76978;SDS011;65911;47.502;19.148;2023-04-03T00:12:59;4.45;;;3.58;;
76978;SDS011;65911;47.502;19.148;2023-04-03T00:16:02;3.40;;;2.58;;
76978;SDS011;65911;47.502;19.148;2023-04-03T00:19:08;4.27;;;3.10;;
76978;SDS011;65911;47.502;19.148;2023-04-03T00:22:13;3.25;;;2.80;;
76978;SDS011;65911;47.502;19.148;2023-04-03T00:25:15;3.67;;;3.13;;
76978;SDS011;65911;47.502;19.148;2023-04-03T00:28:18;4.97;;;3.00;;
76978;SDS011;65911;47.502;19.148;2023-04-03T00:31:21;4.15;;;3.10;;
76978;SDS011;65911;47.502;19.148;2023-04-03T00:34:25;4.18;;;3.35;;
76978;SDS011;65911;47.502;19.148;2023-04-03T00:37:28;4.03;;;3.40;;
76978;SDS011;65911;47.502;19.148;2023-04-03T00:40:35;4.10;;;3.40;;
76978;SDS011;65911;47.502;19.148;2023-04-03T00:43:39;4.05;;;3.30;;
76978;SDS011;65911;47.502;19.148;2023-04-03T00:46:42;4.32;;;3.22;;
76978;SDS011;65911;47.502;19.148;2023-04-03T00:49:47;3.83;;;3.23;;
76978;SDS011;65911;47.502;19.148;2023-04-03T00:52:51;6.05;;;3.40;;
76978;SDS011;65911;47.502;19.148;2023-04-03T00:55:54;3.63;;;2.85;;
76978;SDS011;65911;47.502;19.148;2023-04-03T00:59:04;5.03;;;4.10;;
76978;SDS011;65911;47.502;19.148;2023-04-03T01:12:32;3.83;;;3.00;;
76978;SDS011;65911;47.502;19.148;2023-04-03T01:15:39;3.88;;;3.03;;
76978;SDS011;65911;47.502;19.148;2023-04-03T01:18:44;4.07;;;3.20;;
76978;SDS011;65911;47.502;19.148;2023-04-03T01:21:53;3.75;;;3.20;;
76978;SDS011;65911;47.502;19.148;2023-04-03T01:24:58;4.33;;;3.27;;
76978;SDS011;65911;47.502;19.148;2023-04-03T01:28:01;4.53;;;3.20;;
76978;SDS011;65911;47.502;19.148;2023-04-03T01:34:53;3.80;;;3.00;;
76978;SDS011;65911;47.502;19.148;2023-04-03T01:37:55;3.95;;;3.08;;
76978;SDS011;65911;47.502;19.148;2023-04-03T01:40:57;3.85;;;3.35;;
76978;SDS011;65911;47.502;19.148;2023-04-03T01:44:00;3.53;;;2.92;;
76978;SDS011;65911;47.502;19.148;2023-04-03T01:47:04;3.42;;;2.50;;
76978;SDS011;65911;47.502;19.148;2023-04-03T01:50:08;3.95;;;3.00;;
76978;SDS011;65911;47.502;19.148;2023-04-03T01:53:11;3.70;;;3.00;;
76978;SDS011;65911;47.502;19.148;2023-04-03T01:56:14;3.33;;;2.80;;
76978;SDS011;65911;47.502;19.148;2023-04-03T01:59:16;3.72;;;2.80;;
76978;SDS011;65911;47.502;19.148;2023-04-03T02:02:19;4.32;;;2.65;;
76978;SDS011;65911;47.502;19.148;2023-04-03T02:05:22;4.37;;;2.80;;
76978;SDS011;65911;47.502;19.148;2023-04-03T02:08:24;3.97;;;2.60;;
76978;SDS011;65911;47.502;19.148;2023-04-03T02:11:27;3.35;;;2.47;;
76978;SDS011;65911;47.502;19.148;2023-04-03T02:14:29;3.50;;;2.67;;
76978;SDS011;65911;47.502;19.148;2023-04-03T02:17:31;3.03;;;2.10;;
76978;SDS011;65911;47.502;19.148;2023-04-03T02:20:33;2.80;;;2.10;;
76978;SDS011;65911;47.502;19.148;2023-04-03T02:23:36;2.80;;;2.50;;
76978;SDS011;65911;47.502;19.148;2023-04-03T02:26:38;3.53;;;2.50;;
76978;SDS011;65911;47.502;19.148;2023-04-03T02:29:43;3.17;;;2.45;;
76978;SDS011;65911;47.502;19.148;2023-04-03T02:32:45;2.95;;;2.65;;
76978;SDS011;65911;47.502;19.148;2023-04-03T02:35:51;3.60;;;2.70;;
76978;SDS011;65911;47.502;19.148;2023-04-03T02:38:56;3.45;;;2.60;;
76978;SDS011;65911;47.502;19.148;2023-04-03T02:42:03;2.88;;;2.28;;
76978;SDS011;65911;47.502;19.148;2023-04-03T02:45:09;2.78;;;2.50;;
76978;SDS011;65911;47.502;19.148;2023-04-03T02:48:12;3.25;;;2.35;;
76978;SDS011;65911;47.502;19.148;2023-04-03T02:51:16;3.25;;;2.55;;
76978;SDS011;65911;47.502;19.148;2023-04-03T02:54:18;4.38;;;2.38;;
76978;SDS011;65911;47.502;19.148;2023-04-03T02:57:28;2.53;;;2.10;;
76978;SDS011;65911;47.502;19.148;2023-04-03T03:00:31;3.40;;;3.00;;
76978;SDS011;65911;47.502;19.148;2023-04-03T03:03:33;3.67;;;2.78;;
76978;SDS011;65911;47.502;19.148;2023-04-03T03:06:36;3.13;;;2.20;;
76978;SDS011;65911;47.502;19.148;2023-04-03T03:09:38;5.55;;;2.40;;
76978;SDS011;65911;47.502;19.148;2023-04-03T03:12:40;3.03;;;2.25;;
76978;SDS011;65911;47.502;19.148;2023-04-03T03:15:44;3.08;;;2.30;;
76978;SDS011;65911;47.502;19.148;2023-04-03T03:18:47;3.00;;;2.17;;
76978;SDS011;65911;47.502;19.148;2023-04-03T03:21:51;3.33;;;2.42;;
76978;SDS011;65911;47.502;19.148;2023-04-03T03:24:53;3.08;;;2.30;;
76978;SDS011;65911;47.502;19.148;2023-04-03T03:27:56;4.10;;;2.10;;
76978;SDS011;65911;47.502;19.148;2023-04-03T03:30:59;3.10;;;1.98;;
76978;SDS011;65911;47.502;19.148;2023-04-03T03:34:02;3.72;;;2.20;;
76978;SDS011;65911;47.502;19.148;2023-04-03T03:37:05;3.87;;;2.57;;
76978;SDS011;65911;47.502;19.148;2023-04-03T03:40:07;2.78;;;2.35;;
76978;SDS011;65911;47.502;19.148;2023-04-03T03:43:12;4.05;;;2.80;;
76978;SDS011;65911;47.502;19.148;2023-04-03T03:46:14;2.40;;;2.20;;
76978;SDS011;65911;47.502;19.148;2023-04-03T03:49:16;2.92;;;2.63;;
76978;SDS011;65911;47.502;19.148;2023-04-03T03:52:19;3.10;;;2.40;;
76978;SDS011;65911;47.502;19.148;2023-04-03T03:55:25;2.67;;;2.13;;
76978;SDS011;65911;47.502;19.148;2023-04-03T03:58:29;2.87;;;2.40;;
76978;SDS011;65911;47.502;19.148;2023-04-03T04:01:32;2.75;;;2.53;;
76978;SDS011;65911;47.502;19.148;2023-04-03T04:04:36;3.47;;;2.75;;
76978;SDS011;65911;47.502;19.148;2023-04-03T04:07:44;3.40;;;2.60;;
76978;SDS011;65911;47.502;19.148;2023-04-03T04:10:50;4.82;;;2.50;;
76978;SDS011;65911;47.502;19.148;2023-04-03T04:13:53;4.05;;;2.65;;
76978;SDS011;65911;47.502;19.148;2023-04-03T04:16:59;3.47;;;2.50;;
76978;SDS011;65911;47.502;19.148;2023-04-03T04:20:02;3.42;;;2.47;;
76978;SDS011;65911;47.502;19.148;2023-04-03T04:23:07;3.28;;;2.72;;
76978;SDS011;65911;47.502;19.148;2023-04-03T04:26:11;2.90;;;2.60;;
76978;SDS011;65911;47.502;19.148;2023-04-03T04:29:14;3.77;;;3.10;;
76978;SDS011;65911;47.502;19.148;2023-04-03T04:32:19;3.00;;;2.70;;
76978;SDS011;65911;47.502;19.148;2023-04-03T04:35:21;3.25;;;2.63;;
76978;SDS011;65911;47.502;19.148;2023-04-03T04:38:26;3.67;;;2.93;;
76978;SDS011;65911;47.502;19.148;2023-04-03T04:41:29;4.63;;;2.58;;
76978;SDS011;65911;47.502;19.148;2023-04-03T04:44:32;3.40;;;2.55;;
76978;SDS011;65911;47.502;19.148;2023-04-03T04:47:34;3.53;;;2.83;;
76978;SDS011;65911;47.502;19.148;2023-04-03T04:50:37;3.40;;;2.60;;
76978;SDS011;65911;47.502;19.148;2023-04-03T04:53:40;4.90;;;3.03;;
76978;SDS011;65911;47.502;19.148;2023-04-03T04:56:44;4.80;;;3.10;;
76978;SDS011;65911;47.502;19.148;2023-04-03T04:59:47;4.27;;;2.67;;
76978;SDS011;65911;47.502;19.148;2023-04-03T05:02:49;6.05;;;3.03;;
76978;SDS011;65911;47.502;19.148;2023-04-03T05:05:53;3.47;;;2.75;;
76978;SDS011;65911;47.502;19.148;2023-04-03T05:08:56;3.57;;;2.80;;
76978;SDS011;65911;47.502;19.148;2023-04-03T05:11:58;3.58;;;2.70;;
76978;SDS011;65911;47.502;19.148;2023-04-03T05:15:05;3.78;;;2.80;;
76978;SDS011;65911;47.502;19.148;2023-04-03T05:18:08;4.82;;;3.22;;
76978;SDS011;65911;47.502;19.148;2023-04-03T05:21:10;5.40;;;3.47;;
76978;SDS011;65911;47.502;19.148;2023-04-03T05:24:12;3.72;;;2.60;;
76978;SDS011;65911;47.502;19.148;2023-04-03T05:27:17;3.58;;;2.70;;
76978;SDS011;65911;47.502;19.148;2023-04-03T05:30:26;4.17;;;2.53;;
76978;SDS011;65911;47.502;19.148;2023-04-03T05:33:29;3.55;;;3.17;;
76978;SDS011;65911;47.502;19.148;2023-04-03T05:36:33;5.07;;;2.55;;
76978;SDS011;65911;47.502;19.148;2023-04-03T05:39:39;3.67;;;2.53;;
76978;SDS011;65911;47.502;19.148;2023-04-03T05:42:43;3.53;;;2.75;;
76978;SDS011;65911;47.502;19.148;2023-04-03T05:45:47;5.22;;;2.72;;
76978;SDS011;65911;47.502;19.148;2023-04-03T05:48:50;3.38;;;2.67;;
76978;SDS011;65911;47.502;19.148;2023-04-03T05:51:56;4.22;;;2.97;;
76978;SDS011;65911;47.502;19.148;2023-04-03T05:55:03;4.28;;;3.25;;
76978;SDS011;65911;47.502;19.148;2023-04-03T05:58:19;4.03;;;3.17;;
76978;SDS011;65911;47.502;19.148;2023-04-03T06:01:28;5.10;;;2.70;;
76978;SDS011;65911;47.502;19.148;2023-04-03T06:04:36;4.13;;;3.00;;
76978;SDS011;65911;47.502;19.148;2023-04-03T06:07:40;3.72;;;3.10;;
76978;SDS011;65911;47.502;19.148;2023-04-03T06:10:42;4.90;;;3.50;;
76978;SDS011;65911;47.502;19.148;2023-04-03T06:14:04;5.70;;;2.90;;
76978;SDS011;65911;47.502;19.148;2023-04-03T06:17:17;3.95;;;2.42;;
76978;SDS011;65911;47.502;19.148;2023-04-03T06:20:20;4.22;;;2.95;;
76978;SDS011;65911;47.502;19.148;2023-04-03T06:23:27;3.90;;;2.75;;
76978;SDS011;65911;47.502;19.148;2023-04-03T06:26:30;4.53;;;2.90;;
76978;SDS011;65911;47.502;19.148;2023-04-03T06:29:32;4.22;;;3.20;;
76978;SDS011;65911;47.502;19.148;2023-04-03T06:32:34;4.17;;;2.27;;
76978;SDS011;65911;47.502;19.148;2023-04-03T06:35:37;4.47;;;2.72;;
76978;SDS011;65911;47.502;19.148;2023-04-03T06:38:40;4.35;;;2.42;;
76978;SDS011;65911;47.502;19.148;2023-04-03T06:41:45;3.27;;;2.50;;
76978;SDS011;65911;47.502;19.148;2023-04-03T06:44:47;4.47;;;3.00;;
76978;SDS011;65911;47.502;19.148;2023-04-03T06:47:51;4.35;;;2.60;;
76978;SDS011;65911;47.502;19.148;2023-04-03T06:50:54;4.40;;;2.60;;
76978;SDS011;65911;47.502;19.148;2023-04-03T06:53:57;5.13;;;1.98;;
76978;SDS011;65911;47.502;19.148;2023-04-03T06:57:01;3.35;;;2.03;;
76978;SDS011;65911;47.502;19.148;2023-04-03T07:00:05;4.22;;;2.35;;
76978;SDS011;65911;47.502;19.148;2023-04-03T07:03:09;4.40;;;2.40;;
76978;SDS011;65911;47.502;19.148;2023-04-03T07:06:12;2.53;;;2.22;;
76978;SDS011;65911;47.502;19.148;2023-04-03T07:09:15;2.78;;;1.65;;
76978;SDS011;65911;47.502;19.148;2023-04-03T07:12:19;2.33;;;2.00;;
76978;SDS011;65911;47.502;19.148;2023-04-03T07:15:27;2.80;;;1.92;;
76978;SDS011;65911;47.502;19.148;2023-04-03T07:18:30;2.95;;;1.67;;
76978;SDS011;65911;47.502;19.148;2023-04-03T07:21:32;2.97;;;2.10;;
76978;SDS011;65911;47.502;19.148;2023-04-03T07:24:40;3.10;;;2.00;;
76978;SDS011;65911;47.502;19.148;2023-04-03T07:27:45;3.45;;;1.83;;
76978;SDS011;65911;47.502;19.148;2023-04-03T07:30:49;2.83;;;1.92;;
76978;SDS011;65911;47.502;19.148;2023-04-03T07:33:53;1.80;;;1.23;;
76978;SDS011;65911;47.502;19.148;2023-04-03T07:36:56;3.30;;;1.77;;
76978;SDS011;65911;47.502;19.148;2023-04-03T07:40:02;3.15;;;1.60;;
76978;SDS011;65911;47.502;19.148;2023-04-03T07:43:06;1.37;;;1.17;;
76978;SDS011;65911;47.502;19.148;2023-04-03T07:46:10;2.63;;;1.35;;
76978;SDS011;65911;47.502;19.148;2023-04-03T07:49:22;1.73;;;1.20;;
76978;SDS011;65911;47.502;19.148;2023-04-03T07:52:43;3.35;;;1.90;;
76978;SDS011;65911;47.502;19.148;2023-04-03T07:55:46;2.47;;;1.70;;
76978;SDS011;65911;47.502;19.148;2023-04-03T07:58:49;2.75;;;1.50;;
76978;SDS011;65911;47.502;19.148;2023-04-03T08:01:52;1.88;;;1.70;;
76978;SDS011;65911;47.502;19.148;2023-04-03T08:05:27;1.77;;;1.30;;
76978;SDS011;65911;47.502;19.148;2023-04-03T08:08:32;2.75;;;1.50;;
76978;SDS011;65911;47.502;19.148;2023-04-03T08:11:42;2.08;;;1.38;;
76978;SDS011;65911;47.502;19.148;2023-04-03T08:14:45;2.37;;;1.30;;
76978;SDS011;65911;47.502;19.148;2023-04-03T08:17:49;3.92;;;1.77;;
76978;SDS011;65911;47.502;19.148;2023-04-03T08:20:53;2.80;;;1.17;;
76978;SDS011;65911;47.502;19.148;2023-04-03T08:23:55;2.67;;;1.45;;
76978;SDS011;65911;47.502;19.148;2023-04-03T08:26:58;1.85;;;1.58;;
76978;SDS011;65911;47.502;19.148;2023-04-03T08:30:04;3.65;;;1.50;;
76978;SDS011;65911;47.502;19.148;2023-04-03T08:33:13;1.98;;;1.55;;
76978;SDS011;65911;47.502;19.148;2023-04-03T08:36:21;1.73;;;1.47;;
76978;SDS011;65911;47.502;19.148;2023-04-03T08:39:25;2.58;;;1.73;;
76978;SDS011;65911;47.502;19.148;2023-04-03T08:42:41;6.32;;;1.85;;
76978;SDS011;65911;47.502;19.148;2023-04-03T08:46:03;2.87;;;1.80;;
76978;SDS011;65911;47.502;19.148;2023-04-03T08:49:15;3.10;;;1.40;;
76978;SDS011;65911;47.502;19.148;2023-04-03T08:55:53;1.88;;;1.50;;
76978;SDS011;65911;47.502;19.148;2023-04-03T08:59:17;1.67;;;1.27;;
76978;SDS011;65911;47.502;19.148;2023-04-03T09:02:34;4.45;;;1.50;;
76978;SDS011;65911;47.502;19.148;2023-04-03T09:09:06;2.40;;;1.40;;
76978;SDS011;65911;47.502;19.148;2023-04-03T09:12:16;1.40;;;1.30;;
76978;SDS011;65911;47.502;19.148;2023-04-03T09:15:26;2.88;;;1.42;;
76978;SDS011;65911;47.502;19.148;2023-04-03T09:18:43;2.53;;;1.57;;
76978;SDS011;65911;47.502;19.148;2023-04-03T09:21:48;2.50;;;1.10;;
76978;SDS011;65911;47.502;19.148;2023-04-03T09:24:55;1.83;;;1.40;;
76978;SDS011;65911;47.502;19.148;2023-04-03T09:28:07;2.33;;;1.63;;
76978;SDS011;65911;47.502;19.148;2023-04-03T09:34:37;2.00;;;1.40;;
76978;SDS011;65911;47.502;19.148;2023-04-03T09:37:42;1.80;;;1.40;;
76978;SDS011;65911;47.502;19.148;2023-04-03T09:40:47;1.87;;;1.20;;
76978;SDS011;65911;47.502;19.148;2023-04-03T09:44:23;2.25;;;1.60;;
76978;SDS011;65911;47.502;19.148;2023-04-03T09:47:34;2.97;;;1.35;;
76978;SDS011;65911;47.502;19.148;2023-04-03T09:57:59;2.92;;;1.70;;
76978;SDS011;65911;47.502;19.148;2023-04-03T10:01:03;3.15;;;1.40;;
76978;SDS011;65911;47.502;19.148;2023-04-03T10:04:16;2.38;;;1.75;;
76978;SDS011;65911;47.502;19.148;2023-04-03T10:07:39;1.52;;;1.20;;
76978;SDS011;65911;47.502;19.148;2023-04-03T10:14:16;1.60;;;1.20;;
76978;SDS011;65911;47.502;19.148;2023-04-03T10:17:23;1.50;;;1.00;;
76978;SDS011;65911;47.502;19.148;2023-04-03T10:20:47;2.13;;;0.90;;
76978;SDS011;65911;47.502;19.148;2023-04-03T10:24:08;1.60;;;1.13;;
76978;SDS011;65911;47.502;19.148;2023-04-03T10:30:46;1.42;;;1.33;;
76978;SDS011;65911;47.502;19.148;2023-04-03T10:34:06;1.38;;;1.08;;
76978;SDS011;65911;47.502;19.148;2023-04-03T10:37:27;3.47;;;1.13;;
76978;SDS011;65911;47.502;19.148;2023-04-03T10:40:52;1.10;;;0.95;;
76978;SDS011;65911;47.502;19.148;2023-04-03T10:47:21;1.80;;;0.97;;
76978;SDS011;65911;47.502;19.148;2023-04-03T10:50:51;1.73;;;1.20;;
76978;SDS011;65911;47.502;19.148;2023-04-03T10:54:40;1.20;;;1.10;;
76978;SDS011;65911;47.502;19.148;2023-04-03T10:58:14;1.07;;;0.93;;
76978;SDS011;65911;47.502;19.148;2023-04-03T11:01:40;1.50;;;1.00;;
76978;SDS011;65911;47.502;19.148;2023-04-03T11:04:50;1.38;;;1.00;;
76978;SDS011;65911;47.502;19.148;2023-04-03T11:08:01;1.48;;;0.90;;
76978;SDS011;65911;47.502;19.148;2023-04-03T11:11:09;2.25;;;0.80;;
76978;SDS011;65911;47.502;19.148;2023-04-03T11:14:28;1.27;;;0.80;;
76978;SDS011;65911;47.502;19.148;2023-04-03T11:17:47;1.33;;;1.05;;
76978;SDS011;65911;47.502;19.148;2023-04-03T11:21:28;1.27;;;0.87;;
76978;SDS011;65911;47.502;19.148;2023-04-03T11:24:25;3.65;;;1.00;;
76978;SDS011;65911;47.502;19.148;2023-04-03T11:27:30;2.00;;;1.38;;
76978;SDS011;65911;47.502;19.148;2023-04-03T11:30:44;1.10;;;0.97;;
76978;SDS011;65911;47.502;19.148;2023-04-03T11:34:08;1.85;;;1.20;;
76978;SDS011;65911;47.502;19.148;2023-04-03T11:37:38;1.50;;;0.77;;
76978;SDS011;65911;47.502;19.148;2023-04-03T11:40:42;1.92;;;0.90;;
76978;SDS011;65911;47.502;19.148;2023-04-03T11:47:11;0.82;;;0.60;;
76978;SDS011;65911;47.502;19.148;2023-04-03T11:53:50;1.50;;;0.70;;
76978;SDS011;65911;47.502;19.148;2023-04-03T11:57:22;1.05;;;0.93;;
76978;SDS011;65911;47.502;19.148;2023-04-03T12:00:54;1.60;;;1.15;;
76978;SDS011;65911;47.502;19.148;2023-04-03T12:04:10;2.10;;;0.80;;
76978;SDS011;65911;47.502;19.148;2023-04-03T12:07:17;1.52;;;0.90;;
76978;SDS011;65911;47.502;19.148;2023-04-03T12:10:22;1.50;;;0.85;;
76978;SDS011;65911;47.502;19.148;2023-04-03T12:13:33;1.00;;;0.90;;
76978;SDS011;65911;47.502;19.148;2023-04-03T12:16:58;1.20;;;1.10;;
76978;SDS011;65911;47.502;19.148;2023-04-03T12:20:01;1.75;;;0.80;;
76978;SDS011;65911;47.502;19.148;2023-04-03T12:27:49;3.13;;;1.00;;
76978;SDS011;65911;47.502;19.148;2023-04-03T12:30:34;2.67;;;1.20;;
76978;SDS011;65911;47.502;19.148;2023-04-03T12:33:56;3.42;;;1.15;;
76978;SDS011;65911;47.502;19.148;2023-04-03T12:47:28;3.60;;;1.30;;
76978;SDS011;65911;47.502;19.148;2023-04-03T12:50:31;1.40;;;1.00;;
76978;SDS011;65911;47.502;19.148;2023-04-03T12:53:41;2.28;;;1.20;;
76978;SDS011;65911;47.502;19.148;2023-04-03T12:56:44;2.17;;;0.75;;
76978;SDS011;65911;47.502;19.148;2023-04-03T12:59:47;2.67;;;0.97;;
76978;SDS011;65911;47.502;19.148;2023-04-03T13:02:50;2.45;;;0.95;;
76978;SDS011;65911;47.502;19.148;2023-04-03T13:05:54;2.47;;;0.80;;
76978;SDS011;65911;47.502;19.148;2023-04-03T13:09:02;2.87;;;1.20;;
76978;SDS011;65911;47.502;19.148;2023-04-03T13:15:39;2.35;;;1.08;;
76978;SDS011;65911;47.502;19.148;2023-04-03T13:18:44;1.15;;;0.80;;
76978;SDS011;65911;47.502;19.148;2023-04-03T13:22:02;3.40;;;1.17;;
76978;SDS011;65911;47.502;19.148;2023-04-03T13:25:09;1.20;;;0.90;;
76978;SDS011;65911;47.502;19.148;2023-04-03T13:28:14;0.98;;;0.95;;
76978;SDS011;65911;47.502;19.148;2023-04-03T13:31:25;0.97;;;0.77;;
76978;SDS011;65911;47.502;19.148;2023-04-03T13:34:40;1.70;;;1.10;;
76978;SDS011;65911;47.502;19.148;2023-04-03T13:37:58;1.25;;;0.93;;
76978;SDS011;65911;47.502;19.148;2023-04-03T13:41:05;2.40;;;0.90;;
76978;SDS011;65911;47.502;19.148;2023-04-03T13:47:39;1.38;;;0.90;;
76978;SDS011;65911;47.502;19.148;2023-04-03T13:54:18;1.13;;;0.93;;
76978;SDS011;65911;47.502;19.148;2023-04-03T13:57:23;1.23;;;1.05;;
76978;SDS011;65911;47.502;19.148;2023-04-03T14:01:33;1.17;;;0.80;;
76978;SDS011;65911;47.502;19.148;2023-04-03T14:04:10;0.80;;;0.70;;
76978;SDS011;65911;47.502;19.148;2023-04-03T14:07:15;0.85;;;0.85;;
76978;SDS011;65911;47.502;19.148;2023-04-03T14:10:20;1.80;;;1.00;;
76978;SDS011;65911;47.502;19.148;2023-04-03T14:13:22;1.87;;;0.90;;
76978;SDS011;65911;47.502;19.148;2023-04-03T14:16:25;1.25;;;0.80;;
76978;SDS011;65911;47.502;19.148;2023-04-03T14:19:30;2.05;;;1.00;;
76978;SDS011;65911;47.502;19.148;2023-04-03T14:22:33;1.85;;;1.02;;
76978;SDS011;65911;47.502;19.148;2023-04-03T14:25:37;1.73;;;0.80;;
76978;SDS011;65911;47.502;19.148;2023-04-03T14:28:39;1.58;;;0.80;;
76978;SDS011;65911;47.502;19.148;2023-04-03T14:31:46;1.25;;;0.85;;
76978;SDS011;65911;47.502;19.148;2023-04-03T14:34:49;0.80;;;0.60;;
76978;SDS011;65911;47.502;19.148;2023-04-03T14:37:52;1.38;;;0.77;;
76978;SDS011;65911;47.502;19.148;2023-04-03T14:40:56;1.30;;;0.80;;
76978;SDS011;65911;47.502;19.148;2023-04-03T14:44:14;1.67;;;1.07;;
76978;SDS011;65911;47.502;19.148;2023-04-03T14:47:19;1.35;;;0.90;;
76978;SDS011;65911;47.502;19.148;2023-04-03T14:50:32;1.00;;;0.90;;
76978;SDS011;65911;47.502;19.148;2023-04-03T14:53:34;2.03;;;1.20;;
76978;SDS011;65911;47.502;19.148;2023-04-03T14:56:40;1.33;;;1.10;;
76978;SDS011;65911;47.502;19.148;2023-04-03T14:59:44;2.78;;;1.20;;
76978;SDS011;65911;47.502;19.148;2023-04-03T15:02:47;1.15;;;1.05;;
76978;SDS011;65911;47.502;19.148;2023-04-03T15:05:49;1.93;;;0.90;;
76978;SDS011;65911;47.502;19.148;2023-04-03T15:08:52;1.77;;;1.15;;
76978;SDS011;65911;47.502;19.148;2023-04-03T15:11:54;1.40;;;1.10;;
76978;SDS011;65911;47.502;19.148;2023-04-03T15:14:56;1.67;;;1.33;;
76978;SDS011;65911;47.502;19.148;2023-04-03T15:18:04;1.42;;;1.00;;
76978;SDS011;65911;47.502;19.148;2023-04-03T15:21:07;1.38;;;1.10;;
76978;SDS011;65911;47.502;19.148;2023-04-03T15:24:09;1.13;;;1.00;;
76978;SDS011;65911;47.502;19.148;2023-04-03T15:27:12;1.48;;;0.90;;
76978;SDS011;65911;47.502;19.148;2023-04-03T15:30:15;1.20;;;1.10;;
76978;SDS011;65911;47.502;19.148;2023-04-03T15:33:19;1.70;;;1.30;;
76978;SDS011;65911;47.502;19.148;2023-04-03T15:36:21;1.87;;;1.10;;
76978;SDS011;65911;47.502;19.148;2023-04-03T15:39:30;1.73;;;1.40;;
76978;SDS011;65911;47.502;19.148;2023-04-03T15:42:32;1.83;;;1.30;;
76978;SDS011;65911;47.502;19.148;2023-04-03T15:45:35;1.93;;;0.80;;
76978;SDS011;65911;47.502;19.148;2023-04-03T15:48:39;2.03;;;1.13;;
76978;SDS011;65911;47.502;19.148;2023-04-03T15:51:41;1.88;;;1.10;;
76978;SDS011;65911;47.502;19.148;2023-04-03T15:54:43;1.02;;;0.93;;
76978;SDS011;65911;47.502;19.148;2023-04-03T15:57:45;2.17;;;0.95;;
76978;SDS011;65911;47.502;19.148;2023-04-03T16:00:48;2.35;;;1.17;;
76978;SDS011;65911;47.502;19.148;2023-04-03T16:03:50;1.65;;;1.27;;
76978;SDS011;65911;47.502;19.148;2023-04-03T16:06:52;2.57;;;1.10;;
76978;SDS011;65911;47.502;19.148;2023-04-03T16:09:55;1.80;;;1.10;;
76978;SDS011;65911;47.502;19.148;2023-04-03T16:12:57;4.45;;;1.48;;
76978;SDS011;65911;47.502;19.148;2023-04-03T16:15:59;3.83;;;1.33;;
76978;SDS011;65911;47.502;19.148;2023-04-03T16:19:03;2.10;;;1.27;;
76978;SDS011;65911;47.502;19.148;2023-04-03T16:22:06;2.45;;;1.20;;
76978;SDS011;65911;47.502;19.148;2023-04-03T16:25:08;2.35;;;1.10;;
76978;SDS011;65911;47.502;19.148;2023-04-03T16:28:11;2.05;;;1.40;;
76978;SDS011;65911;47.502;19.148;2023-04-03T16:31:14;2.25;;;1.20;;
76978;SDS011;65911;47.502;19.148;2023-04-03T16:34:17;2.33;;;1.30;;
76978;SDS011;65911;47.502;19.148;2023-04-03T16:37:19;2.77;;;1.17;;
76978;SDS011;65911;47.502;19.148;2023-04-03T16:40:22;2.05;;;1.40;;
76978;SDS011;65911;47.502;19.148;2023-04-03T16:43:24;1.52;;;1.13;;
76978;SDS011;65911;47.502;19.148;2023-04-03T16:46:27;2.13;;;1.40;;
76978;SDS011;65911;47.502;19.148;2023-04-03T16:49:29;4.68;;;1.50;;
76978;SDS011;65911;47.502;19.148;2023-04-03T16:52:34;2.15;;;1.50;;
76978;SDS011;65911;47.502;19.148;2023-04-03T16:55:37;3.53;;;1.50;;
76978;SDS011;65911;47.502;19.148;2023-04-03T16:58:39;2.92;;;1.67;;
76978;SDS011;65911;47.502;19.148;2023-04-03T17:01:41;3.55;;;1.52;;
76978;SDS011;65911;47.502;19.148;2023-04-03T17:04:44;3.45;;;1.60;;
76978;SDS011;65911;47.502;19.148;2023-04-03T17:07:46;2.07;;;1.40;;
76978;SDS011;65911;47.502;19.148;2023-04-03T17:10:48;3.33;;;1.75;;
76978;SDS011;65911;47.502;19.148;2023-04-03T17:13:52;5.13;;;1.98;;
76978;SDS011;65911;47.502;19.148;2023-04-03T17:16:54;2.50;;;1.60;;
76978;SDS011;65911;47.502;19.148;2023-04-03T17:19:57;2.50;;;1.50;;
76978;SDS011;65911;47.502;19.148;2023-04-03T17:22:59;2.33;;;1.60;;
76978;SDS011;65911;47.502;19.148;2023-04-03T17:26:03;2.90;;;1.80;;
76978;SDS011;65911;47.502;19.148;2023-04-03T17:29:06;3.63;;;1.27;;
76978;SDS011;65911;47.502;19.148;2023-04-03T17:32:08;2.90;;;1.50;;
76978;SDS011;65911;47.502;19.148;2023-04-03T17:35:10;3.30;;;1.60;;
76978;SDS011;65911;47.502;19.148;2023-04-03T17:38:13;2.13;;;1.47;;
76978;SDS011;65911;47.502;19.148;2023-04-03T17:41:15;2.95;;;1.75;;
76978;SDS011;65911;47.502;19.148;2023-04-03T17:44:17;4.03;;;1.48;;
76978;SDS011;65911;47.502;19.148;2023-04-03T17:47:19;1.87;;;1.30;;
76978;SDS011;65911;47.502;19.148;2023-04-03T17:50:21;1.52;;;1.42;;
76978;SDS011;65911;47.502;19.148;2023-04-03T17:53:24;3.05;;;1.60;;
76978;SDS011;65911;47.502;19.148;2023-04-03T17:56:28;2.55;;;1.58;;
76978;SDS011;65911;47.502;19.148;2023-04-03T17:59:30;2.30;;;1.35;;
76978;SDS011;65911;47.502;19.148;2023-04-03T18:02:32;3.30;;;1.95;;
76978;SDS011;65911;47.502;19.148;2023-04-03T18:05:35;1.85;;;1.40;;
76978;SDS011;65911;47.502;19.148;2023-04-03T18:08:41;3.13;;;1.63;;
76978;SDS011;65911;47.502;19.148;2023-04-03T18:11:46;1.80;;;1.45;;
76978;SDS011;65911;47.502;19.148;2023-04-03T18:14:49;2.50;;;1.50;;
76978;SDS011;65911;47.502;19.148;2023-04-03T18:17:51;2.73;;;2.13;;
76978;SDS011;65911;47.502;19.148;2023-04-03T18:20:57;2.53;;;1.70;;
76978;SDS011;65911;47.502;19.148;2023-04-03T18:23:59;3.55;;;1.40;;
76978;SDS011;65911;47.502;19.148;2023-04-03T18:27:04;2.08;;;1.50;;
76978;SDS011;65911;47.502;19.148;2023-04-03T18:30:09;2.60;;;1.50;;
76978;SDS011;65911;47.502;19.148;2023-04-03T18:33:14;2.17;;;1.58;;
76978;SDS011;65911;47.502;19.148;2023-04-03T18:36:17;3.60;;;1.65;;
76978;SDS011;65911;47.502;19.148;2023-04-03T18:39:19;3.37;;;1.60;;
76978;SDS011;65911;47.502;19.148;2023-04-03T18:42:23;5.10;;;1.35;;
76978;SDS011;65911;47.502;19.148;2023-04-03T18:45:27;2.78;;;1.40;;
76978;SDS011;65911;47.502;19.148;2023-04-03T18:48:29;2.60;;;1.40;;
76978;SDS011;65911;47.502;19.148;2023-04-03T18:51:33;1.55;;;1.20;;
76978;SDS011;65911;47.502;19.148;2023-04-03T18:54:35;2.17;;;1.23;;
76978;SDS011;65911;47.502;19.148;2023-04-03T18:57:38;1.77;;;1.30;;
76978;SDS011;65911;47.502;19.148;2023-04-03T19:00:40;2.95;;;1.80;;
76978;SDS011;65911;47.502;19.148;2023-04-03T19:03:42;1.45;;;1.30;;
76978;SDS011;65911;47.502;19.148;2023-04-03T19:06:45;2.58;;;1.48;;
76978;SDS011;65911;47.502;19.148;2023-04-03T19:09:47;4.77;;;1.70;;
76978;SDS011;65911;47.502;19.148;2023-04-03T19:12:50;2.40;;;1.73;;
76978;SDS011;65911;47.502;19.148;2023-04-03T19:15:52;3.80;;;1.70;;
76978;SDS011;65911;47.502;19.148;2023-04-03T19:18:59;2.60;;;1.50;;
76978;SDS011;65911;47.502;19.148;2023-04-03T19:22:01;3.10;;;1.60;;
76978;SDS011;65911;47.502;19.148;2023-04-03T19:25:04;2.30;;;1.70;;
76978;SDS011;65911;47.502;19.148;2023-04-03T19:28:07;3.00;;;1.33;;
76978;SDS011;65911;47.502;19.148;2023-04-03T19:31:13;1.60;;;1.40;;
76978;SDS011;65911;47.502;19.148;2023-04-03T19:34:16;2.13;;;1.40;;
76978;SDS011;65911;47.502;19.148;2023-04-03T19:37:19;3.17;;;2.00;;